Aeroporto :







RITROVATECI SU...

 
LOGIN :

Iscrizione | Disclaimer

   EN    FR    IT 

 









Sommario :    VFR   VFR Marginale   IFR   IFR Intensivo   IFR Molto Intensivo
Visibilità : 
Base nubi : 
>= 8 km
>= 3000ft
5 / 8 km
1000 / 3000 ft
1500m / 5 km
500 / 1000 ft
800 / 1500m
200 / 500 ft
< 800m
< 200 ft
Simboli :   Temporali  Nebbia  Neve Forte  Precipitazioni Forti  Vento > 20 kt






- Altitudine del aeroporto : 92 ft
- Codice IATA : YZX


CYZX - CFB Greenwood

ULTIMO METAR :
  • 251900Z 20007KT 15SM BKN030 OVC090 00/M05 A3050 RMK SC5AC3 SLP331

METARs OBSOLETI :
  • 251800Z 17003KT 15SM OVC060 M00/M06 A3051 RMK SC8 SLP333
  • 251700Z 20007KT 15SM OVC075 M01/M06 A3052 RMK AC8 SLP338

TAF TAF CYZX
Valido dal 25 a 18 ore il 26 a 18 ore UTC


251730Z 2518/2618 19008KT P6SM BKN100 OVC220
FM251900 19008G18KT P6SM SCT025 OVC080
TEMPO 2519/2524 P6SM -SHRA BKN025
FM260000 15008KT P6SM BKN025 OVC040
TEMPO 2600/2603 P6SM -SHRA OVC020
FM260300 18010KT P6SM -SHRA OVC015
TEMPO 2603/2609 5SM -SHRA -DZ BR SCT008 OVC012
FM260900 VRB03KT 2SM -DZ BR OVC006
FM261500 VRB03KT 3SM -SHRA BR OVC008 RMK NXT FCST BY 260000Z
FIR CZQM / America del Nord



MetMap, La meteo Aeronautica in un colpo d'occhio ! - Copyright ORBIFLY Dicembre 2007 - Disclaimer

ORBIFLY MET'MAP TEAM :

Programmazione e sviluppo : Alexandra Zaïnal
Concezione : Baudouin d'Aumeries
Aiuto per la programmazione : Marc-Olivier Méhu
Supporto tecnico e logistico : Manuel Goepfert
Aiuto per la traduzione : Arnaldo La Scala

Contatto : metmap@orbifly.com




FONTI E CREDITI :

   NOAA